createdAt,value
2022-12-08T00:01:27.307Z,3.35
2022-12-08T00:03:55.438Z,3.36
2022-12-08T00:06:48.837Z,3.36
2022-12-08T00:09:25.877Z,3.37
2022-12-08T00:11:59.349Z,3.37
2022-12-08T00:14:32.131Z,3.37
2022-12-08T00:17:00.233Z,3.37
2022-12-08T00:19:27.558Z,3.38
2022-12-08T00:21:54.959Z,3.38
2022-12-08T00:24:25.435Z,3.38
2022-12-08T00:26:51.885Z,3.37
2022-12-08T00:29:18.895Z,3.37
2022-12-08T00:31:45.464Z,3.38
2022-12-08T00:34:13.871Z,3.38
2022-12-08T00:36:40.792Z,3.36
2022-12-08T00:39:07.353Z,3.37
2022-12-08T00:41:52.636Z,3.37
2022-12-08T00:44:19.733Z,3.39
2022-12-08T00:46:49.432Z,3.39
2022-12-08T00:49:16.986Z,3.38
2022-12-08T00:51:43.959Z,3.37
2022-12-08T00:54:11.638Z,3.37
2022-12-08T00:56:38.462Z,3.37
2022-12-08T00:59:06.742Z,3.36
2022-12-08T01:01:34.213Z,3.35
2022-12-08T01:04:07.660Z,3.36
2022-12-08T01:06:38.496Z,3.33
2022-12-08T01:09:07.217Z,3.33
2022-12-08T01:11:34.682Z,3.32
2022-12-08T01:14:01.519Z,3.32
2022-12-08T01:16:31.247Z,3.30
2022-12-08T01:18:59.249Z,3.32
2022-12-08T01:21:26.362Z,3.31
2022-12-08T01:23:52.812Z,3.31
2022-12-08T01:26:19.840Z,3.32
2022-12-08T01:28:47.115Z,3.32
2022-12-08T01:31:16.813Z,3.33
2022-12-08T01:33:44.058Z,3.34
2022-12-08T01:36:21.457Z,3.36
2022-12-08T01:38:48.060Z,3.35
2022-12-08T01:41:17.175Z,3.36
2022-12-08T01:43:57.505Z,3.34
2022-12-08T01:46:25.622Z,3.34
2022-12-08T01:48:56.951Z,3.33
2022-12-08T01:51:23.855Z,3.35
2022-12-08T01:53:50.834Z,3.34
2022-12-08T01:56:26.286Z,3.33
2022-12-08T01:58:55.702Z,3.34
2022-12-08T02:01:22.391Z,3.35
2022-12-08T02:03:59.042Z,3.37
2022-12-08T02:06:28.876Z,3.36
2022-12-08T02:08:56.651Z,3.35
2022-12-08T02:11:23.279Z,3.34
2022-12-08T02:13:52.341Z,3.33
2022-12-08T02:16:31.427Z,3.34
2022-12-08T02:19:35.067Z,3.36
2022-12-08T02:22:06.986Z,3.37
2022-12-08T02:25:07.278Z,3.36
2022-12-08T02:27:41.517Z,3.36
2022-12-08T02:30:35.995Z,3.35
2022-12-08T02:33:44.198Z,3.36
2022-12-08T02:36:20.569Z,3.37
2022-12-08T02:39:12.213Z,3.37
2022-12-08T02:41:46.749Z,3.36
2022-12-08T02:44:35.491Z,3.36
2022-12-08T02:47:16.632Z,3.37
2022-12-08T02:49:43.427Z,3.37
2022-12-08T02:52:12.618Z,3.41
2022-12-08T02:54:44.003Z,3.41
2022-12-08T02:57:30.766Z,3.40
2022-12-08T03:00:14.093Z,3.40
2022-12-08T03:02:56.630Z,3.42
2022-12-08T03:05:31.876Z,3.42
2022-12-08T03:08:15.051Z,3.42
2022-12-08T03:10:52.451Z,3.44
2022-12-08T03:13:23.540Z,3.41
2022-12-08T03:15:52.931Z,3.39
2022-12-08T03:18:27.668Z,3.38
2022-12-08T03:20:54.777Z,3.38
2022-12-08T03:23:23.177Z,3.38
2022-12-08T03:25:58.432Z,3.37
2022-12-08T03:28:25.481Z,3.37
2022-12-08T03:30:56.567Z,3.37
2022-12-08T03:33:35.643Z,3.38
2022-12-08T03:36:05.057Z,3.38
2022-12-08T03:38:43.710Z,3.38
2022-12-08T03:41:20.207Z,3.38
2022-12-08T03:43:55.464Z,3.37
2022-12-08T03:48:50.262Z,3.35
2022-12-08T03:51:17.408Z,3.36
2022-12-08T03:53:44.252Z,3.36
2022-12-08T03:56:30.709Z,3.37
2022-12-08T03:58:57.813Z,3.38
2022-12-08T04:01:25.197Z,3.37
2022-12-08T04:03:52.427Z,3.35
2022-12-08T04:06:20.338Z,3.33
2022-12-08T04:08:47.616Z,3.30
2022-12-08T04:11:14.366Z,3.29
2022-12-08T04:13:42.329Z,3.28
2022-12-08T04:16:13.979Z,3.27
2022-12-08T04:18:40.531Z,3.24
2022-12-08T04:21:07.162Z,3.24
2022-12-08T04:23:33.825Z,3.24
2022-12-08T04:26:00.761Z,3.24
2022-12-08T04:28:29.602Z,3.27
2022-12-08T04:30:56.339Z,3.24
2022-12-08T04:33:23.341Z,3.24
2022-12-08T04:35:50.307Z,3.22
2022-12-08T04:38:17.507Z,3.20
2022-12-08T04:40:44.213Z,3.20
2022-12-08T04:43:10.963Z,3.20
2022-12-08T04:45:40.227Z,3.21
2022-12-08T04:48:06.843Z,3.22
2022-12-08T04:50:33.488Z,3.22
2022-12-08T04:53:00.169Z,3.21
2022-12-08T04:55:26.820Z,3.20
2022-12-08T04:57:53.366Z,3.20
2022-12-08T05:00:20.014Z,3.21
2022-12-08T05:02:46.570Z,3.22
2022-12-08T05:05:13.183Z,3.20
2022-12-08T05:07:39.847Z,3.20
2022-12-08T05:10:07.429Z,3.19
2022-12-08T05:12:34.340Z,3.20
2022-12-08T05:15:00.888Z,3.18
2022-12-08T05:17:27.445Z,3.17
2022-12-08T05:19:54.115Z,3.18
2022-12-08T05:22:20.605Z,3.16
2022-12-08T05:24:47.803Z,3.15
2022-12-08T05:27:14.984Z,3.14
2022-12-08T05:29:41.856Z,3.12
2022-12-08T05:32:08.546Z,3.09
2022-12-08T05:34:35.198Z,3.09
2022-12-08T05:37:01.820Z,3.08
2022-12-08T05:39:28.649Z,3.08
2022-12-08T05:41:55.220Z,3.07
2022-12-08T05:44:21.751Z,3.07
2022-12-08T05:46:48.557Z,3.06
2022-12-08T05:49:15.127Z,3.06
2022-12-08T05:51:41.698Z,3.06
2022-12-08T05:54:08.426Z,3.04
2022-12-08T05:56:35.025Z,3.04
2022-12-08T05:59:01.853Z,3.04
2022-12-08T06:01:30.952Z,3.04
2022-12-08T06:03:59.993Z,3.05
2022-12-08T06:06:27.546Z,3.03
2022-12-08T06:08:54.183Z,3.03
2022-12-08T06:11:24.183Z,3.04
2022-12-08T06:13:51.452Z,3.04
2022-12-08T06:16:18.888Z,3.03
2022-12-08T06:18:45.889Z,3.03
2022-12-08T06:21:14.695Z,3.03
2022-12-08T06:23:41.452Z,3.02
2022-12-08T06:26:12.072Z,3.03
2022-12-08T06:28:40.494Z,3.00
2022-12-08T06:31:17.044Z,2.98
2022-12-08T06:33:43.955Z,2.98
2022-12-08T06:36:12.774Z,2.98
2022-12-08T06:38:43.280Z,2.96
2022-12-08T06:41:11.608Z,2.95
2022-12-08T06:43:39.220Z,2.94
2022-12-08T06:46:08.861Z,2.93
2022-12-08T06:48:35.669Z,2.94
2022-12-08T06:51:14.525Z,2.92
2022-12-08T06:53:41.775Z,2.90
2022-12-08T06:56:09.755Z,2.89
2022-12-08T06:58:36.466Z,2.90
2022-12-08T07:01:12.803Z,2.88
2022-12-08T07:03:40.266Z,2.87
2022-12-08T07:06:07.107Z,2.86
2022-12-08T07:08:35.010Z,2.87
2022-12-08T07:11:08.068Z,2.86
2022-12-08T07:13:34.865Z,2.86
2022-12-08T07:16:01.604Z,2.86
2022-12-08T07:18:28.199Z,2.85
2022-12-08T07:20:54.651Z,2.83
2022-12-08T07:23:21.225Z,2.85
2022-12-08T07:25:47.762Z,2.86
2022-12-08T07:28:14.476Z,2.84
2022-12-08T07:30:41.133Z,2.85
2022-12-08T07:33:07.687Z,2.84
2022-12-08T07:35:35.358Z,2.86
2022-12-08T07:38:02.812Z,2.89
2022-12-08T07:40:32.224Z,2.91
2022-12-08T07:42:58.914Z,2.94
2022-12-08T07:45:31.237Z,2.99
2022-12-08T07:47:58.454Z,3.06
2022-12-08T07:50:24.969Z,3.10
2022-12-08T07:52:51.565Z,3.16
2022-12-08T07:55:18.121Z,3.22
2022-12-08T07:57:44.704Z,3.28
2022-12-08T08:00:11.944Z,3.33
2022-12-08T08:02:38.867Z,3.38
2022-12-08T08:05:06.464Z,3.41
2022-12-08T08:07:33.231Z,3.43
2022-12-08T08:09:59.956Z,3.47
2022-12-08T08:12:31.833Z,3.49
2022-12-08T08:15:00.881Z,3.56
2022-12-08T08:17:28.563Z,3.59
2022-12-08T08:19:55.452Z,3.61
2022-12-08T08:22:22.437Z,3.65
2022-12-08T08:24:49.008Z,3.68
2022-12-08T08:27:15.554Z,3.69
2022-12-08T08:29:42.155Z,3.73
2022-12-08T08:32:09.043Z,3.74
2022-12-08T08:34:35.748Z,3.74
2022-12-08T08:37:02.605Z,3.78
2022-12-08T08:39:30.279Z,3.79
2022-12-08T08:41:57.078Z,3.82
2022-12-08T08:44:23.989Z,3.80
2022-12-08T08:46:50.841Z,3.84
2022-12-08T08:49:18.629Z,3.88
2022-12-08T08:51:45.265Z,3.89
2022-12-08T08:54:12.220Z,3.93
2022-12-08T08:56:38.771Z,3.96
2022-12-08T08:59:05.558Z,4.00
2022-12-08T09:01:32.528Z,4.05
2022-12-08T09:03:59.644Z,4.09
2022-12-08T09:09:21.520Z,4.19
2022-12-08T09:11:48.914Z,4.19
2022-12-08T09:14:16.039Z,4.19
2022-12-08T09:16:43.297Z,4.25
2022-12-08T09:19:10.166Z,4.26
2022-12-08T09:21:37.055Z,4.30
2022-12-08T09:24:04.172Z,4.34
2022-12-08T09:26:31.060Z,4.37
2022-12-08T09:28:58.320Z,4.39
2022-12-08T09:31:25.599Z,4.39
2022-12-08T09:33:52.452Z,4.41
2022-12-08T09:36:20.028Z,4.41
2022-12-08T09:38:46.851Z,4.46
2022-12-08T09:41:39.276Z,4.48
2022-12-08T09:44:30.187Z,4.50
2022-12-08T09:46:58.957Z,4.51
2022-12-08T09:49:39.902Z,4.51
2022-12-08T09:52:19.032Z,4.47
2022-12-08T09:54:45.873Z,4.46
2022-12-08T09:57:17.147Z,4.45
2022-12-08T09:59:48.040Z,4.49
2022-12-08T10:02:25.374Z,4.52
2022-12-08T10:04:55.405Z,4.49
2022-12-08T10:07:31.104Z,4.56
2022-12-08T10:10:26.451Z,4.57
2022-12-08T10:12:59.342Z,4.55
2022-12-08T10:15:41.007Z,4.58
2022-12-08T10:18:15.664Z,4.55
2022-12-08T10:20:45.476Z,4.55
2022-12-08T10:23:38.877Z,4.60
2022-12-08T10:26:12.488Z,4.67
2022-12-08T10:28:44.785Z,4.69
2022-12-08T10:31:20.974Z,4.68
2022-12-08T10:33:57.591Z,4.68
2022-12-08T10:36:45.071Z,4.65
2022-12-08T10:39:34.104Z,4.68
2022-12-08T10:42:03.208Z,4.69
2022-12-08T10:44:30.163Z,4.69
2022-12-08T10:46:56.916Z,4.66
2022-12-08T10:49:29.411Z,4.65
2022-12-08T10:51:56.130Z,4.66
2022-12-08T10:54:36.020Z,4.64
2022-12-08T10:57:02.735Z,4.66
2022-12-08T10:59:29.621Z,4.68
2022-12-08T11:01:57.239Z,4.69
2022-12-08T11:04:34.784Z,4.66
2022-12-08T11:07:02.965Z,4.59
2022-12-08T11:09:48.849Z,4.59
2022-12-08T11:12:20.640Z,4.59
2022-12-08T11:14:54.654Z,4.51
2022-12-08T11:17:27.748Z,4.51
2022-12-08T11:20:04.134Z,4.48
2022-12-08T11:22:34.419Z,4.50
2022-12-08T11:25:11.031Z,4.44
2022-12-08T11:27:44.401Z,4.47
2022-12-08T11:30:15.668Z,4.46
2022-12-08T11:32:44.966Z,4.41
2022-12-08T11:35:40.094Z,4.46
2022-12-08T11:38:21.508Z,4.53
2022-12-08T11:40:52.457Z,4.55
2022-12-08T11:43:26.458Z,4.58
2022-12-08T11:46:00.181Z,4.59
2022-12-08T11:48:33.707Z,4.59
2022-12-08T11:58:16.824Z,4.63
2022-12-08T12:00:43.564Z,4.63
2022-12-08T12:03:36.252Z,4.73
2022-12-08T12:06:38.092Z,4.72
2022-12-08T12:09:14.810Z,4.72
2022-12-08T12:12:19.338Z,4.73
2022-12-08T12:15:04.727Z,4.73
2022-12-08T12:17:49.843Z,4.80
2022-12-08T12:20:28.604Z,4.83
2022-12-08T12:23:06.018Z,4.85
2022-12-08T12:25:34.853Z,4.85
2022-12-08T12:28:05.896Z,4.86
2022-12-08T12:30:58.595Z,4.93
2022-12-08T12:33:25.953Z,4.94
2022-12-08T12:35:57.464Z,4.91
2022-12-08T12:38:54.113Z,4.85
2022-12-08T12:41:29.566Z,4.86
2022-12-08T12:44:14.665Z,4.88
2022-12-08T12:46:48.626Z,4.81
2022-12-08T12:49:40.420Z,4.82
2022-12-08T12:52:09.999Z,4.80
2022-12-08T12:54:36.594Z,4.74
2022-12-08T12:57:09.483Z,4.77
2022-12-08T12:59:56.372Z,4.79
2022-12-08T13:02:24.963Z,4.79
2022-12-08T13:05:00.753Z,4.84
2022-12-08T13:07:35.950Z,4.85
2022-12-08T13:10:04.980Z,4.88
2022-12-08T13:12:32.254Z,4.91
2022-12-08T13:15:05.283Z,4.93
2022-12-08T13:17:37.672Z,4.96
2022-12-08T13:20:07.529Z,4.96
2022-12-08T13:22:57.601Z,4.99
2022-12-08T13:25:46.561Z,5.03
2022-12-08T13:28:15.898Z,5.00
2022-12-08T13:30:50.610Z,5.00
2022-12-08T13:33:22.080Z,4.97
2022-12-08T13:36:03.323Z,5.00
2022-12-08T13:38:34.106Z,5.01
2022-12-08T13:41:03.612Z,4.97
2022-12-08T13:44:31.163Z,4.96
2022-12-08T13:58:17.953Z,4.76
2022-12-08T14:00:57.101Z,4.72
2022-12-08T14:03:23.895Z,4.76
2022-12-08T14:06:17.933Z,4.77
2022-12-08T14:11:36.119Z,4.82
2022-12-08T14:14:06.718Z,4.84
2022-12-08T14:16:38.388Z,4.88
2022-12-08T14:19:21.755Z,4.90
2022-12-08T14:21:54.008Z,4.89
2022-12-08T14:24:22.247Z,4.90
2022-12-08T14:26:54.834Z,4.86
2022-12-08T14:29:36.708Z,4.85
2022-12-08T14:32:04.750Z,4.79
2022-12-08T14:34:40.414Z,4.78
2022-12-08T14:37:12.712Z,4.79
2022-12-08T14:39:40.907Z,4.81
2022-12-08T14:42:07.785Z,4.81
2022-12-08T14:44:39.077Z,4.83
2022-12-08T14:47:08.120Z,4.82
2022-12-08T14:49:37.039Z,4.86
2022-12-08T14:52:11.234Z,4.89
2022-12-08T14:54:40.221Z,4.92
2022-12-08T14:57:08.087Z,4.94
2022-12-08T14:59:38.036Z,4.94
2022-12-08T15:02:10.661Z,4.96
2022-12-08T15:04:44.186Z,4.97
2022-12-08T15:07:14.182Z,4.96
2022-12-08T15:09:45.197Z,4.95
2022-12-08T15:12:15.040Z,4.97
2022-12-08T15:14:56.875Z,4.92
2022-12-08T15:17:29.021Z,4.94
2022-12-08T15:19:57.413Z,4.93
2022-12-08T15:22:24.669Z,4.93
2022-12-08T15:24:51.437Z,4.92
2022-12-08T15:27:20.817Z,4.92
2022-12-08T15:29:48.646Z,4.92
2022-12-08T15:32:21.228Z,4.94
2022-12-08T15:34:48.247Z,4.92
2022-12-08T15:37:22.416Z,4.89
2022-12-08T15:39:49.668Z,4.90
2022-12-08T15:42:16.800Z,4.89
2022-12-08T15:44:44.448Z,4.86
2022-12-08T15:47:22.105Z,4.88
2022-12-08T15:49:50.486Z,4.88
2022-12-08T15:52:19.939Z,4.92
2022-12-08T15:54:46.656Z,4.85
2022-12-08T15:58:04.084Z,4.85
2022-12-08T16:09:11.978Z,4.85
2022-12-08T16:12:07.657Z,4.79
2022-12-08T16:17:21.831Z,4.76
2022-12-08T16:19:48.574Z,4.75
2022-12-08T16:25:18.189Z,4.71
2022-12-08T16:28:17.432Z,4.68
2022-12-08T16:30:33.624Z,4.69
2022-12-08T16:33:00.467Z,4.72
2022-12-08T16:35:27.284Z,4.70
2022-12-08T16:37:53.975Z,4.70
2022-12-08T16:40:21.194Z,4.70
2022-12-08T16:42:48.568Z,4.65
2022-12-08T16:45:18.385Z,4.67
2022-12-08T16:47:49.093Z,4.66
2022-12-08T16:50:21.144Z,4.64
2022-12-08T16:52:49.115Z,4.62
2022-12-08T16:55:18.215Z,4.62
2022-12-08T16:57:46.245Z,4.65
2022-12-08T17:00:16.494Z,4.63
2022-12-08T17:02:43.541Z,4.65
2022-12-08T17:05:13.789Z,4.65
2022-12-08T17:07:42.902Z,4.65
2022-12-08T17:10:11.511Z,4.65
2022-12-08T17:12:38.619Z,4.66
2022-12-08T17:15:08.292Z,4.66
2022-12-08T17:17:35.853Z,4.68
2022-12-08T17:20:08.488Z,4.64
2022-12-08T17:22:35.750Z,4.65
2022-12-08T17:25:02.982Z,4.64
2022-12-08T17:27:30.045Z,4.57
2022-12-08T17:29:57.537Z,4.52
2022-12-08T17:32:24.571Z,4.50
2022-12-08T17:34:51.355Z,4.48
2022-12-08T17:37:18.288Z,4.45
2022-12-08T17:39:45.323Z,4.41
2022-12-08T17:42:12.093Z,4.38
2022-12-08T17:44:39.216Z,4.32
2022-12-08T17:47:05.868Z,4.30
2022-12-08T17:49:33.982Z,4.26
2022-12-08T17:52:04.140Z,4.23
2022-12-08T17:54:31.398Z,4.18
2022-12-08T17:56:58.922Z,4.19
2022-12-08T17:59:27.579Z,4.16
2022-12-08T18:01:55.538Z,4.15
2022-12-08T18:04:22.562Z,4.15
2022-12-08T18:06:49.439Z,4.16
2022-12-08T18:09:16.179Z,4.15
2022-12-08T18:11:44.164Z,4.14
2022-12-08T18:14:11.933Z,4.15
2022-12-08T18:16:42.210Z,4.13
2022-12-08T18:19:10.403Z,4.09
2022-12-08T18:21:37.595Z,4.10
2022-12-08T18:24:05.189Z,4.06
2022-12-08T18:26:31.996Z,4.06
2022-12-08T18:28:58.676Z,4.05
2022-12-08T18:31:25.618Z,4.08
2022-12-08T18:33:53.553Z,4.08
2022-12-08T18:36:23.466Z,4.10
2022-12-08T18:38:51.655Z,4.11
2022-12-08T18:41:23.652Z,4.13
2022-12-08T18:43:50.783Z,4.10
2022-12-08T18:46:17.412Z,4.10
2022-12-08T18:48:47.261Z,4.09
2022-12-08T18:51:20.001Z,4.10
2022-12-08T18:53:47.415Z,4.09
2022-12-08T18:56:26.068Z,4.07
2022-12-08T18:58:59.834Z,4.04
2022-12-08T19:01:30.139Z,4.00
2022-12-08T19:04:26.845Z,4.01
2022-12-08T19:06:46.214Z,4.01
2022-12-08T19:09:13.083Z,4.02
2022-12-08T19:11:40.083Z,4.03
2022-12-08T19:14:07.563Z,4.06
2022-12-08T19:16:34.379Z,4.06
2022-12-08T19:19:01.094Z,4.05
2022-12-08T19:21:28.552Z,4.09
2022-12-08T19:23:58.438Z,4.08
2022-12-08T19:26:27.872Z,4.09
2022-12-08T19:28:54.603Z,4.11
2022-12-08T19:31:21.348Z,4.13
2022-12-08T19:33:48.090Z,4.17
2022-12-08T19:36:20.877Z,4.18
2022-12-08T19:39:06.238Z,4.20
2022-12-08T19:41:51.870Z,4.17
2022-12-08T19:44:43.624Z,4.20
2022-12-08T19:47:10.345Z,4.20
2022-12-08T19:49:37.396Z,4.22
2022-12-08T19:52:05.059Z,4.24
2022-12-08T19:54:32.295Z,4.23
2022-12-08T19:56:58.830Z,4.19
2022-12-08T19:59:26.572Z,4.21
2022-12-08T20:01:55.926Z,4.21
2022-12-08T20:04:24.148Z,4.21
2022-12-08T20:06:52.243Z,4.26
2022-12-08T20:09:19.535Z,4.28
2022-12-08T20:11:46.387Z,4.31
2022-12-08T20:14:13.145Z,4.31
2022-12-08T20:16:41.816Z,4.33
2022-12-08T20:19:09.454Z,4.35
2022-12-08T20:21:36.105Z,4.37
2022-12-08T20:24:04.552Z,4.37
2022-12-08T20:26:31.238Z,4.39
2022-12-08T20:28:57.726Z,4.40
2022-12-08T20:31:27.298Z,4.42
2022-12-08T20:33:54.338Z,4.41
2022-12-08T20:36:22.077Z,4.41
2022-12-08T20:38:50.195Z,4.46
2022-12-08T20:41:17.810Z,4.47
2022-12-08T20:43:45.974Z,4.50
2022-12-08T20:46:15.187Z,4.51
2022-12-08T20:48:42.904Z,4.50
2022-12-08T20:51:13.471Z,4.52
2022-12-08T20:53:40.477Z,4.54
2022-12-08T20:56:07.432Z,4.53
2022-12-08T20:58:34.161Z,4.55
2022-12-08T21:01:01.207Z,4.54
2022-12-08T21:03:28.056Z,4.51
2022-12-08T21:05:54.927Z,4.48
2022-12-08T21:08:24.979Z,4.43
2022-12-08T21:10:55.749Z,4.38
2022-12-08T21:13:22.712Z,4.33
2022-12-08T21:15:49.955Z,4.21
2022-12-08T21:18:17.357Z,4.16
2022-12-08T21:20:44.609Z,4.11
2022-12-08T21:23:13.267Z,4.04
2022-12-08T21:25:42.314Z,3.99
2022-12-08T21:28:10.248Z,3.94
2022-12-08T21:30:39.843Z,3.88
2022-12-08T21:33:06.655Z,3.81
2022-12-08T21:35:33.502Z,3.76
2022-12-08T21:38:00.597Z,3.68
2022-12-08T21:40:27.384Z,3.63
2022-12-08T21:42:54.230Z,3.57
2022-12-08T21:45:22.071Z,3.54
2022-12-08T21:47:49.692Z,3.47
2022-12-08T21:50:17.719Z,3.42
2022-12-08T21:52:46.944Z,3.42
2022-12-08T21:55:15.358Z,3.37
2022-12-08T21:57:42.824Z,3.29
2022-12-08T22:00:15.459Z,3.23
2022-12-08T22:02:42.571Z,3.20
2022-12-08T22:05:10.024Z,3.18
2022-12-08T22:07:39.953Z,3.17
2022-12-08T22:10:08.721Z,3.16
2022-12-08T22:12:37.510Z,3.14
2022-12-08T22:15:06.554Z,3.14
2022-12-08T22:17:37.569Z,3.12
2022-12-08T22:20:07.848Z,3.12
2022-12-08T22:22:35.376Z,3.09
2022-12-08T22:25:03.638Z,3.08
2022-12-08T22:27:30.486Z,3.05
2022-12-08T22:29:57.136Z,2.99
2022-12-08T22:32:24.034Z,2.95
2022-12-08T22:34:51.014Z,2.93
2022-12-08T22:37:17.827Z,2.90
2022-12-08T22:39:44.406Z,2.88
2022-12-08T22:42:11.234Z,2.86
2022-12-08T22:44:37.851Z,2.84
2022-12-08T22:47:04.998Z,2.81
2022-12-08T22:49:31.768Z,2.75
2022-12-08T22:51:58.955Z,2.71
2022-12-08T22:54:25.825Z,2.65
2022-12-08T22:56:52.353Z,2.62
2022-12-08T22:59:18.870Z,2.57
2022-12-08T23:01:45.467Z,2.55
2022-12-08T23:04:17.352Z,2.52
2022-12-08T23:06:44.206Z,2.49
2022-12-08T23:09:11.313Z,2.44
2022-12-08T23:11:38.118Z,2.43
2022-12-08T23:14:04.862Z,2.39
2022-12-08T23:16:32.020Z,2.37
2022-12-08T23:18:59.157Z,2.37
2022-12-08T23:21:26.005Z,2.38
2022-12-08T23:23:52.601Z,2.40
2022-12-08T23:26:23.842Z,2.41
2022-12-08T23:28:51.304Z,2.43
2022-12-08T23:31:18.917Z,2.43
2022-12-08T23:33:46.156Z,2.43
2022-12-08T23:36:13.787Z,2.44
2022-12-08T23:38:40.453Z,2.45
2022-12-08T23:41:09.060Z,2.46
2022-12-08T23:43:36.517Z,2.46
2022-12-08T23:46:04.649Z,2.46
2022-12-08T23:48:34.957Z,2.46
2022-12-08T23:51:01.998Z,2.47
2022-12-08T23:53:33.171Z,2.47
2022-12-08T23:56:01.858Z,2.42
2022-12-08T23:58:30.881Z,2.41
